aviador You're here:

KMSN Decoded Metar

MADISON in WI, USA
Report Time2017-08-22 21:53:00
UTC Time2017-08-22 22:32:49
Flight Rules vfr VFR
Wind320° at 12 Gusting to 18 kt
W.Decomp.*RWY 32: 12.0 kt HW 0.6 kt RCW
RWY 36: 9.6 kt HW 7.2 kt LCW
RWY 03: 4.7 kt HW 11 kt LCW
W.Rank320° ranks 6
Current wind is above 320° avg. (7.5)
Visibility9999 m
Phenomena:N/A
Clouds:Few 060 Hf
Few 250 Hf
Expected CloudBase > 5,200 ft AGL from Temp-Dew spread
CeilingNone
Temp23°C (ISA +10)
Dew Point10°C (44% RH)
AAT18.7°C
QNH1015 hPa
Density Alt2,083 ft
Elevation856 ft
Report Wrong Elevation
Raw Report
KMSN 222153Z 32012G18KT 10SM FEW060 FEW250 23/10 A2996 RMK AO2
SLP142 T02330100=

Extra information for KMSN:More info

Metar Taf Metar & Taf Last 4 Metars F.Rules Stats Wind Profile Meteogram Temp Stats Airport Information Weather charts Add Link Nearby VenuesMetar ALERT Operation Metar Decoded Social comments

AIRNAV info for KMSN